sensor_id;sensor_type;location;lat;lon;timestamp;P1;durP1;ratioP1;P2;durP2;ratioP2
21138;SDS011;10727;43.600;1.444;2023-08-20T00:01:18;13.70;;;6.93;;
21138;SDS011;10727;43.600;1.444;2023-08-20T00:04:25;14.10;;;6.70;;
21138;SDS011;10727;43.600;1.444;2023-08-20T00:07:31;14.30;;;7.07;;
21138;SDS011;10727;43.600;1.444;2023-08-20T00:10:38;12.98;;;6.07;;
21138;SDS011;10727;43.600;1.444;2023-08-20T00:13:43;15.10;;;6.57;;
21138;SDS011;10727;43.600;1.444;2023-08-20T00:16:48;14.05;;;6.57;;
21138;SDS011;10727;43.600;1.444;2023-08-20T00:19:54;14.50;;;6.97;;
21138;SDS011;10727;43.600;1.444;2023-08-20T00:22:59;14.80;;;6.50;;
21138;SDS011;10727;43.600;1.444;2023-08-20T00:26:06;15.88;;;6.47;;
21138;SDS011;10727;43.600;1.444;2023-08-20T00:29:12;16.88;;;6.90;;
21138;SDS011;10727;43.600;1.444;2023-08-20T00:32:17;14.25;;;6.25;;
21138;SDS011;10727;43.600;1.444;2023-08-20T00:35:22;10.77;;;6.03;;
21138;SDS011;10727;43.600;1.444;2023-08-20T00:38:27;11.88;;;5.82;;
21138;SDS011;10727;43.600;1.444;2023-08-20T00:41:33;15.20;;;6.53;;
21138;SDS011;10727;43.600;1.444;2023-08-20T00:44:38;15.02;;;6.68;;
21138;SDS011;10727;43.600;1.444;2023-08-20T00:47:44;12.73;;;6.60;;
21138;SDS011;10727;43.600;1.444;2023-08-20T00:50:51;11.00;;;6.57;;
21138;SDS011;10727;43.600;1.444;2023-08-20T00:53:56;13.35;;;6.45;;
21138;SDS011;10727;43.600;1.444;2023-08-20T00:57:03;13.57;;;6.75;;
21138;SDS011;10727;43.600;1.444;2023-08-20T01:00:09;13.30;;;6.95;;
21138;SDS011;10727;43.600;1.444;2023-08-20T01:03:14;13.70;;;7.18;;
21138;SDS011;10727;43.600;1.444;2023-08-20T01:06:20;13.13;;;6.82;;
21138;SDS011;10727;43.600;1.444;2023-08-20T01:09:30;12.30;;;6.43;;
21138;SDS011;10727;43.600;1.444;2023-08-20T01:12:39;11.30;;;6.95;;
21138;SDS011;10727;43.600;1.444;2023-08-20T01:15:43;16.23;;;7.72;;
21138;SDS011;10727;43.600;1.444;2023-08-20T01:18:49;11.27;;;7.55;;
21138;SDS011;10727;43.600;1.444;2023-08-20T01:22:05;11.07;;;7.28;;
21138;SDS011;10727;43.600;1.444;2023-08-20T01:25:18;11.43;;;7.35;;
21138;SDS011;10727;43.600;1.444;2023-08-20T01:28:27;15.10;;;7.40;;
21138;SDS011;10727;43.600;1.444;2023-08-20T01:31:33;11.20;;;7.35;;
21138;SDS011;10727;43.600;1.444;2023-08-20T01:34:38;11.73;;;7.50;;
21138;SDS011;10727;43.600;1.444;2023-08-20T01:37:43;13.68;;;7.88;;
21138;SDS011;10727;43.600;1.444;2023-08-20T01:40:49;10.85;;;7.53;;
21138;SDS011;10727;43.600;1.444;2023-08-20T01:43:55;11.70;;;7.75;;
21138;SDS011;10727;43.600;1.444;2023-08-20T01:47:00;13.75;;;7.70;;
21138;SDS011;10727;43.600;1.444;2023-08-20T01:50:06;11.55;;;8.05;;
21138;SDS011;10727;43.600;1.444;2023-08-20T01:53:11;12.75;;;7.70;;
21138;SDS011;10727;43.600;1.444;2023-08-20T01:56:17;13.55;;;7.72;;
21138;SDS011;10727;43.600;1.444;2023-08-20T01:59:24;14.32;;;7.80;;
21138;SDS011;10727;43.600;1.444;2023-08-20T02:02:29;14.60;;;8.02;;
21138;SDS011;10727;43.600;1.444;2023-08-20T02:05:35;13.05;;;7.88;;
21138;SDS011;10727;43.600;1.444;2023-08-20T02:08:42;14.05;;;7.55;;
21138;SDS011;10727;43.600;1.444;2023-08-20T02:11:47;11.95;;;7.53;;
21138;SDS011;10727;43.600;1.444;2023-08-20T02:14:53;13.75;;;7.95;;
21138;SDS011;10727;43.600;1.444;2023-08-20T02:17:59;12.07;;;7.90;;
21138;SDS011;10727;43.600;1.444;2023-08-20T02:21:06;11.85;;;7.88;;
21138;SDS011;10727;43.600;1.444;2023-08-20T02:24:11;15.77;;;7.97;;
21138;SDS011;10727;43.600;1.444;2023-08-20T02:27:16;11.95;;;7.65;;
21138;SDS011;10727;43.600;1.444;2023-08-20T02:30:23;15.82;;;7.95;;
21138;SDS011;10727;43.600;1.444;2023-08-20T02:33:28;11.02;;;8.25;;
21138;SDS011;10727;43.600;1.444;2023-08-20T02:36:34;15.45;;;8.00;;
21138;SDS011;10727;43.600;1.444;2023-08-20T02:39:39;13.30;;;8.48;;
21138;SDS011;10727;43.600;1.444;2023-08-20T02:42:45;10.25;;;7.55;;
21138;SDS011;10727;43.600;1.444;2023-08-20T02:45:51;10.18;;;7.70;;
21138;SDS011;10727;43.600;1.444;2023-08-20T02:48:56;13.80;;;7.90;;
21138;SDS011;10727;43.600;1.444;2023-08-20T02:52:04;15.30;;;7.70;;
21138;SDS011;10727;43.600;1.444;2023-08-20T02:55:09;11.75;;;7.85;;
21138;SDS011;10727;43.600;1.444;2023-08-20T02:58:15;17.45;;;8.38;;
21138;SDS011;10727;43.600;1.444;2023-08-20T03:01:21;14.40;;;7.82;;
21138;SDS011;10727;43.600;1.444;2023-08-20T03:04:28;14.60;;;8.00;;
21138;SDS011;10727;43.600;1.444;2023-08-20T03:07:34;11.00;;;7.97;;
21138;SDS011;10727;43.600;1.444;2023-08-20T03:10:39;11.60;;;7.60;;
21138;SDS011;10727;43.600;1.444;2023-08-20T03:13:44;10.27;;;8.13;;
21138;SDS011;10727;43.600;1.444;2023-08-20T03:16:51;13.85;;;7.97;;
21138;SDS011;10727;43.600;1.444;2023-08-20T03:19:56;13.32;;;8.10;;
21138;SDS011;10727;43.600;1.444;2023-08-20T03:23:01;10.75;;;7.95;;
21138;SDS011;10727;43.600;1.444;2023-08-20T03:26:06;11.10;;;7.95;;
21138;SDS011;10727;43.600;1.444;2023-08-20T03:29:11;10.45;;;7.65;;
21138;SDS011;10727;43.600;1.444;2023-08-20T03:32:19;13.65;;;7.72;;
21138;SDS011;10727;43.600;1.444;2023-08-20T03:35:25;11.77;;;8.40;;
21138;SDS011;10727;43.600;1.444;2023-08-20T03:38:30;11.02;;;8.15;;
21138;SDS011;10727;43.600;1.444;2023-08-20T03:41:35;13.60;;;8.10;;
21138;SDS011;10727;43.600;1.444;2023-08-20T03:44:40;17.60;;;7.95;;
21138;SDS011;10727;43.600;1.444;2023-08-20T03:47:47;10.07;;;7.82;;
21138;SDS011;10727;43.600;1.444;2023-08-20T03:50:54;14.13;;;7.90;;
21138;SDS011;10727;43.600;1.444;2023-08-20T03:53:59;10.13;;;7.43;;
21138;SDS011;10727;43.600;1.444;2023-08-20T03:57:04;12.73;;;8.05;;
21138;SDS011;10727;43.600;1.444;2023-08-20T04:00:10;10.70;;;7.82;;
21138;SDS011;10727;43.600;1.444;2023-08-20T04:03:20;11.05;;;7.93;;
21138;SDS011;10727;43.600;1.444;2023-08-20T04:06:25;10.68;;;7.35;;
21138;SDS011;10727;43.600;1.444;2023-08-20T04:09:32;12.90;;;8.45;;
21138;SDS011;10727;43.600;1.444;2023-08-20T04:12:38;11.77;;;7.93;;
21138;SDS011;10727;43.600;1.444;2023-08-20T04:15:44;16.30;;;8.68;;
21138;SDS011;10727;43.600;1.444;2023-08-20T04:18:50;10.20;;;8.35;;
21138;SDS011;10727;43.600;1.444;2023-08-20T04:21:56;15.15;;;8.63;;
21138;SDS011;10727;43.600;1.444;2023-08-20T04:25:01;11.38;;;7.72;;
21138;SDS011;10727;43.600;1.444;2023-08-20T04:28:06;9.63;;;7.53;;
21138;SDS011;10727;43.600;1.444;2023-08-20T04:31:11;12.75;;;7.68;;
21138;SDS011;10727;43.600;1.444;2023-08-20T04:34:30;14.13;;;8.05;;
21138;SDS011;10727;43.600;1.444;2023-08-20T04:37:35;13.13;;;8.32;;
21138;SDS011;10727;43.600;1.444;2023-08-20T04:40:40;13.50;;;8.18;;
21138;SDS011;10727;43.600;1.444;2023-08-20T04:43:45;12.38;;;8.23;;
21138;SDS011;10727;43.600;1.444;2023-08-20T04:46:50;12.40;;;7.80;;
21138;SDS011;10727;43.600;1.444;2023-08-20T04:49:57;14.18;;;8.25;;
21138;SDS011;10727;43.600;1.444;2023-08-20T04:53:02;13.75;;;8.30;;
21138;SDS011;10727;43.600;1.444;2023-08-20T04:56:07;12.82;;;8.13;;
21138;SDS011;10727;43.600;1.444;2023-08-20T04:59:12;16.63;;;8.02;;
21138;SDS011;10727;43.600;1.444;2023-08-20T05:02:29;13.48;;;7.88;;
21138;SDS011;10727;43.600;1.444;2023-08-20T05:05:39;11.25;;;7.55;;
21138;SDS011;10727;43.600;1.444;2023-08-20T05:08:45;11.68;;;8.07;;
21138;SDS011;10727;43.600;1.444;2023-08-20T05:11:50;9.20;;;7.50;;
21138;SDS011;10727;43.600;1.444;2023-08-20T05:14:55;10.95;;;7.70;;
21138;SDS011;10727;43.600;1.444;2023-08-20T05:18:01;10.45;;;7.65;;
21138;SDS011;10727;43.600;1.444;2023-08-20T05:21:08;13.18;;;7.65;;
21138;SDS011;10727;43.600;1.444;2023-08-20T05:24:16;10.85;;;8.30;;
21138;SDS011;10727;43.600;1.444;2023-08-20T05:27:22;11.43;;;8.05;;
21138;SDS011;10727;43.600;1.444;2023-08-20T05:30:28;12.48;;;8.15;;
21138;SDS011;10727;43.600;1.444;2023-08-20T05:33:33;11.30;;;7.57;;
21138;SDS011;10727;43.600;1.444;2023-08-20T05:36:40;11.27;;;7.90;;
21138;SDS011;10727;43.600;1.444;2023-08-20T05:39:45;15.65;;;7.82;;
21138;SDS011;10727;43.600;1.444;2023-08-20T05:42:51;13.73;;;7.97;;
21138;SDS011;10727;43.600;1.444;2023-08-20T05:45:57;15.73;;;7.55;;
21138;SDS011;10727;43.600;1.444;2023-08-20T05:49:02;11.95;;;7.20;;
21138;SDS011;10727;43.600;1.444;2023-08-20T05:52:12;15.77;;;7.88;;
21138;SDS011;10727;43.600;1.444;2023-08-20T05:55:19;12.10;;;8.10;;
21138;SDS011;10727;43.600;1.444;2023-08-20T05:58:25;17.90;;;7.95;;
21138;SDS011;10727;43.600;1.444;2023-08-20T06:01:30;11.90;;;7.93;;
21138;SDS011;10727;43.600;1.444;2023-08-20T06:04:35;16.30;;;12.88;;
21138;SDS011;10727;43.600;1.444;2023-08-20T06:07:41;11.65;;;8.07;;
21138;SDS011;10727;43.600;1.444;2023-08-20T06:10:46;16.13;;;10.15;;
21138;SDS011;10727;43.600;1.444;2023-08-20T06:13:51;16.77;;;12.02;;
21138;SDS011;10727;43.600;1.444;2023-08-20T06:16:57;18.75;;;14.30;;
21138;SDS011;10727;43.600;1.444;2023-08-20T06:20:03;16.20;;;13.05;;
21138;SDS011;10727;43.600;1.444;2023-08-20T06:23:11;13.35;;;10.65;;
21138;SDS011;10727;43.600;1.444;2023-08-20T06:26:17;14.27;;;9.82;;
21138;SDS011;10727;43.600;1.444;2023-08-20T06:29:23;11.95;;;9.00;;
21138;SDS011;10727;43.600;1.444;2023-08-20T06:32:28;16.83;;;10.25;;
21138;SDS011;10727;43.600;1.444;2023-08-20T06:35:33;14.02;;;10.07;;
21138;SDS011;10727;43.600;1.444;2023-08-20T06:38:40;13.00;;;9.57;;
21138;SDS011;10727;43.600;1.444;2023-08-20T06:41:45;15.40;;;9.35;;
21138;SDS011;10727;43.600;1.444;2023-08-20T06:44:56;15.38;;;9.05;;
21138;SDS011;10727;43.600;1.444;2023-08-20T06:48:01;13.20;;;9.57;;
21138;SDS011;10727;43.600;1.444;2023-08-20T06:51:12;13.20;;;7.90;;
21138;SDS011;10727;43.600;1.444;2023-08-20T06:54:19;13.25;;;8.70;;
21138;SDS011;10727;43.600;1.444;2023-08-20T06:57:24;14.45;;;8.10;;
21138;SDS011;10727;43.600;1.444;2023-08-20T07:00:29;14.10;;;9.40;;
21138;SDS011;10727;43.600;1.444;2023-08-20T07:03:35;12.43;;;7.70;;
21138;SDS011;10727;43.600;1.444;2023-08-20T07:06:40;15.32;;;7.53;;
21138;SDS011;10727;43.600;1.444;2023-08-20T07:09:47;12.57;;;6.75;;
21138;SDS011;10727;43.600;1.444;2023-08-20T07:12:52;11.35;;;6.88;;
21138;SDS011;10727;43.600;1.444;2023-08-20T07:15:57;10.85;;;6.82;;
21138;SDS011;10727;43.600;1.444;2023-08-20T07:19:03;15.45;;;6.70;;
21138;SDS011;10727;43.600;1.444;2023-08-20T07:22:08;13.20;;;7.55;;
21138;SDS011;10727;43.600;1.444;2023-08-20T07:25:14;17.35;;;7.07;;
21138;SDS011;10727;43.600;1.444;2023-08-20T07:28:20;13.77;;;7.45;;
21138;SDS011;10727;43.600;1.444;2023-08-20T07:31:45;16.83;;;8.05;;
21138;SDS011;10727;43.600;1.444;2023-08-20T07:34:50;15.18;;;7.40;;
21138;SDS011;10727;43.600;1.444;2023-08-20T07:37:55;11.23;;;6.70;;
21138;SDS011;10727;43.600;1.444;2023-08-20T07:41:02;13.02;;;7.18;;
21138;SDS011;10727;43.600;1.444;2023-08-20T07:44:07;12.93;;;6.72;;
21138;SDS011;10727;43.600;1.444;2023-08-20T07:47:13;13.57;;;6.55;;
21138;SDS011;10727;43.600;1.444;2023-08-20T07:50:17;11.45;;;6.40;;
21138;SDS011;10727;43.600;1.444;2023-08-20T07:53:22;17.25;;;8.73;;
21138;SDS011;10727;43.600;1.444;2023-08-20T07:56:29;14.05;;;8.23;;
21138;SDS011;10727;43.600;1.444;2023-08-20T07:59:34;15.75;;;8.82;;
21138;SDS011;10727;43.600;1.444;2023-08-20T08:02:39;17.60;;;9.07;;
21138;SDS011;10727;43.600;1.444;2023-08-20T08:05:46;16.30;;;9.05;;
21138;SDS011;10727;43.600;1.444;2023-08-20T08:08:51;11.93;;;7.47;;
21138;SDS011;10727;43.600;1.444;2023-08-20T08:11:58;13.70;;;7.45;;
21138;SDS011;10727;43.600;1.444;2023-08-20T08:15:03;13.70;;;7.85;;
21138;SDS011;10727;43.600;1.444;2023-08-20T08:18:08;17.42;;;8.00;;
21138;SDS011;10727;43.600;1.444;2023-08-20T08:21:13;9.90;;;6.15;;
21138;SDS011;10727;43.600;1.444;2023-08-20T08:24:19;12.00;;;5.93;;
21138;SDS011;10727;43.600;1.444;2023-08-20T08:27:25;13.88;;;6.10;;
21138;SDS011;10727;43.600;1.444;2023-08-20T08:30:30;9.55;;;6.18;;
21138;SDS011;10727;43.600;1.444;2023-08-20T08:33:35;10.25;;;5.43;;
21138;SDS011;10727;43.600;1.444;2023-08-20T08:36:40;9.32;;;5.90;;
21138;SDS011;10727;43.600;1.444;2023-08-20T08:39:45;9.65;;;5.28;;
21138;SDS011;10727;43.600;1.444;2023-08-20T08:42:52;7.95;;;4.55;;
21138;SDS011;10727;43.600;1.444;2023-08-20T08:45:57;7.65;;;4.82;;
21138;SDS011;10727;43.600;1.444;2023-08-20T08:49:04;11.25;;;5.10;;
21138;SDS011;10727;43.600;1.444;2023-08-20T08:52:11;11.30;;;4.95;;
21138;SDS011;10727;43.600;1.444;2023-08-20T08:55:17;10.55;;;4.90;;
21138;SDS011;10727;43.600;1.444;2023-08-20T08:58:23;10.10;;;5.43;;
21138;SDS011;10727;43.600;1.444;2023-08-20T09:01:28;9.05;;;5.35;;
21138;SDS011;10727;43.600;1.444;2023-08-20T09:04:33;10.25;;;4.68;;
21138;SDS011;10727;43.600;1.444;2023-08-20T09:07:41;9.10;;;5.47;;
21138;SDS011;10727;43.600;1.444;2023-08-20T09:10:49;12.10;;;4.90;;
21138;SDS011;10727;43.600;1.444;2023-08-20T09:13:56;11.73;;;5.03;;
21138;SDS011;10727;43.600;1.444;2023-08-20T09:17:01;9.18;;;5.03;;
21138;SDS011;10727;43.600;1.444;2023-08-20T09:20:06;11.93;;;5.25;;
21138;SDS011;10727;43.600;1.444;2023-08-20T09:23:11;9.82;;;5.20;;
21138;SDS011;10727;43.600;1.444;2023-08-20T09:26:17;9.77;;;4.75;;
21138;SDS011;10727;43.600;1.444;2023-08-20T09:29:23;9.40;;;5.03;;
21138;SDS011;10727;43.600;1.444;2023-08-20T09:32:28;14.00;;;5.60;;
21138;SDS011;10727;43.600;1.444;2023-08-20T09:35:34;16.98;;;5.03;;
21138;SDS011;10727;43.600;1.444;2023-08-20T09:38:39;7.63;;;5.45;;
21138;SDS011;10727;43.600;1.444;2023-08-20T09:41:43;10.20;;;5.05;;
21138;SDS011;10727;43.600;1.444;2023-08-20T09:44:50;10.55;;;4.65;;
21138;SDS011;10727;43.600;1.444;2023-08-20T09:47:56;10.73;;;4.57;;
21138;SDS011;10727;43.600;1.444;2023-08-20T09:51:04;13.15;;;5.22;;
21138;SDS011;10727;43.600;1.444;2023-08-20T09:54:12;13.35;;;6.05;;
21138;SDS011;10727;43.600;1.444;2023-08-20T09:57:22;9.65;;;4.63;;
21138;SDS011;10727;43.600;1.444;2023-08-20T10:00:29;9.98;;;5.20;;
21138;SDS011;10727;43.600;1.444;2023-08-20T10:03:35;10.93;;;5.22;;
21138;SDS011;10727;43.600;1.444;2023-08-20T10:06:40;10.10;;;5.60;;
21138;SDS011;10727;43.600;1.444;2023-08-20T10:09:46;9.88;;;4.88;;
21138;SDS011;10727;43.600;1.444;2023-08-20T10:12:53;8.80;;;4.80;;
21138;SDS011;10727;43.600;1.444;2023-08-20T10:16:01;7.93;;;4.93;;
21138;SDS011;10727;43.600;1.444;2023-08-20T10:19:06;15.77;;;5.97;;
21138;SDS011;10727;43.600;1.444;2023-08-20T10:22:11;10.23;;;4.45;;
21138;SDS011;10727;43.600;1.444;2023-08-20T10:25:21;9.85;;;4.85;;
21138;SDS011;10727;43.600;1.444;2023-08-20T10:28:27;12.13;;;4.88;;
21138;SDS011;10727;43.600;1.444;2023-08-20T10:31:35;8.23;;;4.68;;
21138;SDS011;10727;43.600;1.444;2023-08-20T10:34:43;14.43;;;5.05;;
21138;SDS011;10727;43.600;1.444;2023-08-20T10:38:01;11.45;;;5.22;;
21138;SDS011;10727;43.600;1.444;2023-08-20T10:41:06;12.57;;;5.18;;
21138;SDS011;10727;43.600;1.444;2023-08-20T10:44:12;11.25;;;5.45;;
21138;SDS011;10727;43.600;1.444;2023-08-20T10:47:18;11.35;;;5.00;;
21138;SDS011;10727;43.600;1.444;2023-08-20T10:50:23;11.70;;;5.78;;
21138;SDS011;10727;43.600;1.444;2023-08-20T10:53:28;11.65;;;5.00;;
21138;SDS011;10727;43.600;1.444;2023-08-20T10:56:38;7.43;;;4.75;;
21138;SDS011;10727;43.600;1.444;2023-08-20T10:59:43;15.13;;;5.32;;
21138;SDS011;10727;43.600;1.444;2023-08-20T11:02:50;9.88;;;4.65;;
21138;SDS011;10727;43.600;1.444;2023-08-20T11:05:56;16.08;;;5.07;;
21138;SDS011;10727;43.600;1.444;2023-08-20T11:09:01;8.75;;;4.82;;
21138;SDS011;10727;43.600;1.444;2023-08-20T11:12:09;10.73;;;5.20;;
21138;SDS011;10727;43.600;1.444;2023-08-20T11:15:14;12.57;;;5.20;;
21138;SDS011;10727;43.600;1.444;2023-08-20T11:18:20;10.82;;;4.78;;
21138;SDS011;10727;43.600;1.444;2023-08-20T11:21:25;12.70;;;6.60;;
21138;SDS011;10727;43.600;1.444;2023-08-20T11:24:33;8.98;;;5.38;;
21138;SDS011;10727;43.600;1.444;2023-08-20T11:27:41;12.43;;;6.00;;
21138;SDS011;10727;43.600;1.444;2023-08-20T11:30:46;10.02;;;5.30;;
21138;SDS011;10727;43.600;1.444;2023-08-20T11:33:53;12.38;;;5.53;;
21138;SDS011;10727;43.600;1.444;2023-08-20T11:36:58;9.48;;;6.07;;
21138;SDS011;10727;43.600;1.444;2023-08-20T11:40:05;47.88;;;41.33;;
21138;SDS011;10727;43.600;1.444;2023-08-20T11:43:11;57.38;;;48.78;;
21138;SDS011;10727;43.600;1.444;2023-08-20T11:46:18;39.17;;;32.03;;
21138;SDS011;10727;43.600;1.444;2023-08-20T11:49:28;21.77;;;19.13;;
21138;SDS011;10727;43.600;1.444;2023-08-20T11:52:33;15.38;;;8.60;;
21138;SDS011;10727;43.600;1.444;2023-08-20T11:55:39;9.00;;;5.38;;
21138;SDS011;10727;43.600;1.444;2023-08-20T11:58:49;10.38;;;6.03;;
21138;SDS011;10727;43.600;1.444;2023-08-20T12:01:54;9.70;;;5.80;;
21138;SDS011;10727;43.600;1.444;2023-08-20T12:05:01;16.15;;;5.60;;
21138;SDS011;10727;43.600;1.444;2023-08-20T12:08:06;11.88;;;5.75;;
21138;SDS011;10727;43.600;1.444;2023-08-20T12:11:11;10.35;;;6.03;;
21138;SDS011;10727;43.600;1.444;2023-08-20T12:14:16;10.85;;;5.38;;
21138;SDS011;10727;43.600;1.444;2023-08-20T12:17:21;10.15;;;4.72;;
21138;SDS011;10727;43.600;1.444;2023-08-20T12:20:28;11.48;;;4.90;;
21138;SDS011;10727;43.600;1.444;2023-08-20T12:23:34;10.15;;;4.80;;
21138;SDS011;10727;43.600;1.444;2023-08-20T12:26:39;13.32;;;5.10;;
21138;SDS011;10727;43.600;1.444;2023-08-20T12:29:45;9.45;;;5.25;;
21138;SDS011;10727;43.600;1.444;2023-08-20T12:32:51;9.00;;;4.97;;
21138;SDS011;10727;43.600;1.444;2023-08-20T12:35:58;7.82;;;5.25;;
21138;SDS011;10727;43.600;1.444;2023-08-20T12:39:03;9.65;;;4.90;;
21138;SDS011;10727;43.600;1.444;2023-08-20T12:42:08;12.13;;;4.85;;
21138;SDS011;10727;43.600;1.444;2023-08-20T12:45:13;10.93;;;5.43;;
21138;SDS011;10727;43.600;1.444;2023-08-20T12:48:18;10.80;;;4.95;;
21138;SDS011;10727;43.600;1.444;2023-08-20T12:51:25;6.80;;;5.10;;
21138;SDS011;10727;43.600;1.444;2023-08-20T12:54:30;8.07;;;4.80;;
21138;SDS011;10727;43.600;1.444;2023-08-20T12:57:36;9.27;;;4.90;;
21138;SDS011;10727;43.600;1.444;2023-08-20T13:00:41;10.35;;;5.13;;
21138;SDS011;10727;43.600;1.444;2023-08-20T13:03:46;10.38;;;4.78;;
21138;SDS011;10727;43.600;1.444;2023-08-20T13:06:53;7.15;;;5.05;;
21138;SDS011;10727;43.600;1.444;2023-08-20T13:09:58;9.15;;;6.30;;
21138;SDS011;10727;43.600;1.444;2023-08-20T13:13:04;10.70;;;6.18;;
21138;SDS011;10727;43.600;1.444;2023-08-20T13:16:10;11.68;;;5.40;;
21138;SDS011;10727;43.600;1.444;2023-08-20T13:19:15;9.30;;;5.03;;
21138;SDS011;10727;43.600;1.444;2023-08-20T13:22:22;9.45;;;5.07;;
21138;SDS011;10727;43.600;1.444;2023-08-20T13:25:27;11.50;;;4.82;;
21138;SDS011;10727;43.600;1.444;2023-08-20T13:28:32;8.43;;;5.40;;
21138;SDS011;10727;43.600;1.444;2023-08-20T13:31:37;6.57;;;4.85;;
21138;SDS011;10727;43.600;1.444;2023-08-20T13:34:42;7.53;;;4.63;;
21138;SDS011;10727;43.600;1.444;2023-08-20T13:37:49;11.35;;;4.40;;
21138;SDS011;10727;43.600;1.444;2023-08-20T13:40:55;10.82;;;4.80;;
21138;SDS011;10727;43.600;1.444;2023-08-20T13:44:01;12.05;;;4.93;;
21138;SDS011;10727;43.600;1.444;2023-08-20T13:47:06;10.38;;;4.55;;
21138;SDS011;10727;43.600;1.444;2023-08-20T13:50:11;9.10;;;4.50;;
21138;SDS011;10727;43.600;1.444;2023-08-20T13:53:17;7.03;;;4.43;;
21138;SDS011;10727;43.600;1.444;2023-08-20T13:56:22;7.93;;;5.65;;
21138;SDS011;10727;43.600;1.444;2023-08-20T13:59:28;10.85;;;5.15;;
21138;SDS011;10727;43.600;1.444;2023-08-20T14:02:33;11.65;;;5.18;;
21138;SDS011;10727;43.600;1.444;2023-08-20T14:05:38;9.38;;;5.38;;
21138;SDS011;10727;43.600;1.444;2023-08-20T14:08:45;8.30;;;4.45;;
21138;SDS011;10727;43.600;1.444;2023-08-20T14:11:51;12.15;;;4.50;;
21138;SDS011;10727;43.600;1.444;2023-08-20T14:14:56;11.52;;;4.43;;
21138;SDS011;10727;43.600;1.444;2023-08-20T14:18:01;7.50;;;4.47;;
21138;SDS011;10727;43.600;1.444;2023-08-20T14:21:06;9.80;;;4.28;;
21138;SDS011;10727;43.600;1.444;2023-08-20T14:24:12;8.68;;;4.22;;
21138;SDS011;10727;43.600;1.444;2023-08-20T14:27:17;9.20;;;3.90;;
21138;SDS011;10727;43.600;1.444;2023-08-20T14:30:22;13.80;;;4.70;;
21138;SDS011;10727;43.600;1.444;2023-08-20T14:33:28;9.32;;;5.07;;
21138;SDS011;10727;43.600;1.444;2023-08-20T14:36:33;8.43;;;5.10;;
21138;SDS011;10727;43.600;1.444;2023-08-20T14:39:39;10.75;;;4.43;;
21138;SDS011;10727;43.600;1.444;2023-08-20T14:42:44;8.10;;;4.35;;
21138;SDS011;10727;43.600;1.444;2023-08-20T14:45:49;8.38;;;3.70;;
21138;SDS011;10727;43.600;1.444;2023-08-20T14:48:54;6.18;;;4.35;;
21138;SDS011;10727;43.600;1.444;2023-08-20T14:52:00;8.25;;;4.30;;
21138;SDS011;10727;43.600;1.444;2023-08-20T14:55:07;10.23;;;4.25;;
21138;SDS011;10727;43.600;1.444;2023-08-20T14:58:13;9.43;;;4.10;;
21138;SDS011;10727;43.600;1.444;2023-08-20T15:01:18;11.95;;;4.55;;
21138;SDS011;10727;43.600;1.444;2023-08-20T15:04:23;6.75;;;4.40;;
21138;SDS011;10727;43.600;1.444;2023-08-20T15:07:27;7.80;;;3.95;;
21138;SDS011;10727;43.600;1.444;2023-08-20T15:10:34;7.20;;;4.95;;
21138;SDS011;10727;43.600;1.444;2023-08-20T15:13:39;8.30;;;4.68;;
21138;SDS011;10727;43.600;1.444;2023-08-20T15:16:45;4.75;;;4.07;;
21138;SDS011;10727;43.600;1.444;2023-08-20T15:19:50;7.85;;;4.30;;
21138;SDS011;10727;43.600;1.444;2023-08-20T15:22:56;11.18;;;4.28;;
21138;SDS011;10727;43.600;1.444;2023-08-20T15:26:03;9.80;;;3.88;;
21138;SDS011;10727;43.600;1.444;2023-08-20T15:29:07;8.50;;;3.70;;
21138;SDS011;10727;43.600;1.444;2023-08-20T15:32:13;10.25;;;4.05;;
21138;SDS011;10727;43.600;1.444;2023-08-20T15:35:17;5.72;;;4.38;;
21138;SDS011;10727;43.600;1.444;2023-08-20T15:38:23;7.72;;;4.30;;
21138;SDS011;10727;43.600;1.444;2023-08-20T15:41:29;8.35;;;4.30;;
21138;SDS011;10727;43.600;1.444;2023-08-20T15:44:34;7.88;;;3.65;;
21138;SDS011;10727;43.600;1.444;2023-08-20T15:47:39;8.25;;;5.15;;
21138;SDS011;10727;43.600;1.444;2023-08-20T15:50:44;7.38;;;3.83;;
21138;SDS011;10727;43.600;1.444;2023-08-20T15:53:50;4.75;;;3.50;;
21138;SDS011;10727;43.600;1.444;2023-08-20T15:56:56;7.50;;;3.90;;
21138;SDS011;10727;43.600;1.444;2023-08-20T16:00:02;5.57;;;3.50;;
21138;SDS011;10727;43.600;1.444;2023-08-20T16:03:08;5.32;;;3.70;;
21138;SDS011;10727;43.600;1.444;2023-08-20T16:06:16;8.48;;;3.90;;
21138;SDS011;10727;43.600;1.444;2023-08-20T16:09:21;9.30;;;4.00;;
21138;SDS011;10727;43.600;1.444;2023-08-20T16:12:27;9.20;;;3.78;;
21138;SDS011;10727;43.600;1.444;2023-08-20T16:15:32;7.47;;;3.75;;
21138;SDS011;10727;43.600;1.444;2023-08-20T16:18:37;7.78;;;3.60;;
21138;SDS011;10727;43.600;1.444;2023-08-20T16:21:42;8.48;;;3.63;;
21138;SDS011;10727;43.600;1.444;2023-08-20T16:24:47;5.70;;;3.70;;
21138;SDS011;10727;43.600;1.444;2023-08-20T16:27:54;6.07;;;4.03;;
21138;SDS011;10727;43.600;1.444;2023-08-20T16:30:59;8.02;;;3.47;;
21138;SDS011;10727;43.600;1.444;2023-08-20T16:34:04;4.50;;;3.30;;
21138;SDS011;10727;43.600;1.444;2023-08-20T16:37:09;6.82;;;3.60;;
21138;SDS011;10727;43.600;1.444;2023-08-20T16:40:19;7.50;;;3.53;;
21138;SDS011;10727;43.600;1.444;2023-08-20T16:43:25;9.57;;;3.25;;
21138;SDS011;10727;43.600;1.444;2023-08-20T16:46:30;7.25;;;3.00;;
21138;SDS011;10727;43.600;1.444;2023-08-20T16:49:35;8.68;;;3.30;;
21138;SDS011;10727;43.600;1.444;2023-08-20T16:52:41;9.27;;;2.92;;
21138;SDS011;10727;43.600;1.444;2023-08-20T16:55:49;7.32;;;3.88;;
21138;SDS011;10727;43.600;1.444;2023-08-20T16:58:56;4.15;;;3.25;;
21138;SDS011;10727;43.600;1.444;2023-08-20T17:02:01;6.97;;;3.20;;
21138;SDS011;10727;43.600;1.444;2023-08-20T17:05:07;6.43;;;3.58;;
21138;SDS011;10727;43.600;1.444;2023-08-20T17:08:13;7.45;;;3.58;;
21138;SDS011;10727;43.600;1.444;2023-08-20T17:11:19;4.57;;;3.40;;
21138;SDS011;10727;43.600;1.444;2023-08-20T17:14:25;5.20;;;3.75;;
21138;SDS011;10727;43.600;1.444;2023-08-20T17:17:31;9.60;;;3.88;;
21138;SDS011;10727;43.600;1.444;2023-08-20T17:20:36;5.88;;;3.22;;
21138;SDS011;10727;43.600;1.444;2023-08-20T17:23:41;23.35;;;20.45;;
21138;SDS011;10727;43.600;1.444;2023-08-20T17:26:46;15.32;;;10.38;;
21138;SDS011;10727;43.600;1.444;2023-08-20T17:29:53;13.02;;;9.00;;
21138;SDS011;10727;43.600;1.444;2023-08-20T17:32:57;8.65;;;7.00;;
21138;SDS011;10727;43.600;1.444;2023-08-20T17:36:03;9.68;;;5.30;;
21138;SDS011;10727;43.600;1.444;2023-08-20T17:39:09;7.70;;;4.45;;
21138;SDS011;10727;43.600;1.444;2023-08-20T17:42:13;5.13;;;4.00;;
21138;SDS011;10727;43.600;1.444;2023-08-20T17:45:20;5.57;;;3.40;;
21138;SDS011;10727;43.600;1.444;2023-08-20T17:48:25;5.47;;;3.10;;
21138;SDS011;10727;43.600;1.444;2023-08-20T17:51:31;6.60;;;2.85;;
21138;SDS011;10727;43.600;1.444;2023-08-20T17:54:36;6.65;;;3.30;;
21138;SDS011;10727;43.600;1.444;2023-08-20T17:57:42;4.88;;;3.22;;
21138;SDS011;10727;43.600;1.444;2023-08-20T18:00:49;6.22;;;3.42;;
21138;SDS011;10727;43.600;1.444;2023-08-20T18:03:54;7.72;;;3.45;;
21138;SDS011;10727;43.600;1.444;2023-08-20T18:06:59;8.60;;;3.60;;
21138;SDS011;10727;43.600;1.444;2023-08-20T18:10:07;8.32;;;3.40;;
21138;SDS011;10727;43.600;1.444;2023-08-20T18:13:12;6.32;;;3.33;;
21138;SDS011;10727;43.600;1.444;2023-08-20T18:16:18;8.18;;;3.20;;
21138;SDS011;10727;43.600;1.444;2023-08-20T18:19:23;6.25;;;2.90;;
21138;SDS011;10727;43.600;1.444;2023-08-20T18:22:29;8.52;;;3.10;;
21138;SDS011;10727;43.600;1.444;2023-08-20T18:25:34;5.15;;;3.15;;
21138;SDS011;10727;43.600;1.444;2023-08-20T18:28:39;6.90;;;3.40;;